Time;durP1;ratioP1;P1;durP2;ratioP2;P2;SDS_P1;SDS_P2;PMS_P1;PMS_P2;Temp;Humidity;BMP_temperature;BMP_pressure;BME280_temperature;BME280_humidity;BME280_pressure;Samples;Min_cycle;Max_cycle;Signal;HPM_P1;HPM_P2
2021/03/01 00:01:46;;;;;;;11.00;5.17;;;;;;;1.74;69.35;101394.83;126259;1096;104146;-76
2021/03/01 00:04:15;;;;;;;11.05;5.00;;;;;;;1.73;69.42;101396.52;126283;1096;104280;-77
2021/03/01 00:06:44;;;;;;;10.50;4.83;;;;;;;1.72;69.67;101396.38;126221;1096;104295;-76
2021/03/01 00:09:13;;;;;;;13.30;5.30;;;;;;;1.71;69.30;101397.15;126234;1096;104145;-76
2021/03/01 00:11:42;;;;;;;9.77;4.60;;;;;;;1.70;69.98;101388.49;126261;1099;104595;-76
2021/03/01 00:14:11;;;;;;;12.57;5.50;;;;;;;1.70;70.13;101398.84;126285;1096;104214;-76
2021/03/01 00:16:40;;;;;;;11.33;4.80;;;;;;;1.68;70.13;101396.88;126340;1096;104278;-76
2021/03/01 00:19:09;;;;;;;12.03;5.40;;;;;;;1.62;69.74;101389.49;126266;1096;104149;-77
2021/03/01 00:21:39;;;;;;;12.40;4.77;;;;;;;1.59;70.17;101391.81;126261;1096;104347;-77
2021/03/01 00:24:09;;;;;;;9.93;4.90;;;;;;;1.57;70.15;101389.13;126261;1099;104265;-76
2021/03/01 00:26:38;;;;;;;10.33;4.70;;;;;;;1.55;70.09;101382.89;126294;1096;104143;-76
2021/03/01 00:29:07;;;;;;;12.70;5.47;;;;;;;1.54;70.47;101381.11;126300;1096;104192;-76
2021/03/01 00:31:36;;;;;;;11.57;5.27;;;;;;;1.54;70.16;101377.59;126320;1096;104150;-76
2021/03/01 00:34:05;;;;;;;10.73;5.23;;;;;;;1.55;70.54;101369.06;126287;1096;104214;-76
2021/03/01 00:36:34;;;;;;;13.93;6.60;;;;;;;1.55;70.64;101371.66;126302;1096;104172;-76
2021/03/01 00:39:03;;;;;;;14.60;6.43;;;;;;;1.56;71.04;101370.89;126327;1096;104150;-76
2021/03/01 00:41:32;;;;;;;13.63;6.20;;;;;;;1.55;70.21;101369.96;126303;1096;104259;-76
2021/03/01 00:44:02;;;;;;;14.43;5.63;;;;;;;1.55;70.60;101364.79;126352;1096;104300;-76
2021/03/01 00:46:31;;;;;;;13.63;5.93;;;;;;;1.57;70.66;101370.09;126255;1096;104184;-76
2021/03/01 00:49:00;;;;;;;14.27;5.67;;;;;;;1.60;71.07;101367.77;126234;1096;104232;-77
2021/03/01 00:51:29;;;;;;;13.73;6.37;;;;;;;1.59;70.39;101363.36;126318;1096;104337;-76
2021/03/01 00:53:58;;;;;;;12.60;5.50;;;;;;;1.56;70.88;101368.30;126317;1095;104302;-76
2021/03/01 00:56:29;;;;;;;11.70;5.60;;;;;;;1.55;71.11;101367.38;126295;1096;105388;-76
2021/03/01 00:58:58;;;;;;;11.77;5.23;;;;;;;1.54;70.67;101367.25;126274;1096;104264;-76
2021/03/01 01:01:27;;;;;;;15.00;6.10;;;;;;;1.53;71.08;101365.45;126233;1096;104150;-77
2021/03/01 01:03:57;;;;;;;13.73;6.23;;;;;;;1.52;71.08;101366.22;126305;1096;104251;-76
2021/03/01 01:06:31;;;;;;;15.37;6.60;;;;;;;1.52;71.33;101368.80;126316;1095;104211;-76
2021/03/01 01:09:00;;;;;;;12.73;5.63;;;;;;;1.52;71.10;101363.63;126274;1096;104144;-76
2021/03/01 01:11:29;;;;;;;12.20;5.43;;;;;;;1.53;71.71;101363.77;126263;1096;104219;-77
2021/03/01 01:13:58;;;;;;;13.60;6.50;;;;;;;1.55;71.52;101363.89;126249;1099;104340;-77
2021/03/01 01:16:34;;;;;;;14.23;5.67;;;;;;;1.56;71.22;101357.95;126308;1096;104179;-77
2021/03/01 01:19:07;;;;;;;15.67;6.40;;;;;;;1.56;71.67;101360.55;126302;1096;104149;-77
2021/03/01 01:21:36;;;;;;;15.33;6.57;;;;;;;1.55;71.75;101363.89;126298;1096;104162;-76
2021/03/01 01:24:06;;;;;;;16.57;6.53;;;;;;;1.57;71.54;101357.16;126241;1096;104647;-77
2021/03/01 01:26:37;;;;;;;11.63;5.43;;;;;;;1.60;71.47;101349.66;126295;1096;104140;-77
2021/03/01 01:29:06;;;;;;;16.67;6.57;;;;;;;1.63;71.83;101355.09;126268;1096;104255;-77
2021/03/01 01:31:35;;;;;;;15.10;6.97;;;;;;;1.68;72.21;101351.20;126316;1096;104146;-77
2021/03/01 01:34:05;;;;;;;14.33;6.80;;;;;;;1.70;71.94;101349.68;126309;1096;104155;-77
2021/03/01 01:36:34;;;;;;;15.30;6.97;;;;;;;1.72;72.36;101348.11;126272;1096;104201;-77
2021/03/01 01:39:04;;;;;;;17.33;7.30;;;;;;;1.74;72.27;101348.24;126282;1096;104188;-77
2021/03/01 01:41:33;;;;;;;15.70;6.77;;;;;;;1.75;71.74;101347.48;126326;1096;104227;-77
2021/03/01 01:44:02;;;;;;;15.97;6.67;;;;;;;1.75;72.08;101348.38;126298;1096;104185;-77
2021/03/01 01:46:32;;;;;;;16.70;7.17;;;;;;;1.78;72.09;101346.05;126266;1096;104241;-77
2021/03/01 01:49:02;;;;;;;15.23;6.70;;;;;;;1.80;72.40;101353.94;126296;1096;104150;-76
2021/03/01 01:51:31;;;;;;;17.20;7.33;;;;;;;1.81;72.19;101348.00;126307;1096;104318;-76
2021/03/01 01:54:01;;;;;;;14.43;6.00;;;;;;;1.83;72.46;101350.72;126293;1096;104290;-77
2021/03/01 01:56:31;;;;;;;16.37;7.03;;;;;;;1.86;72.04;101354.45;126292;1099;104143;-77
2021/03/01 01:59:00;;;;;;;13.10;5.90;;;;;;;1.88;72.61;101360.66;126316;1096;104234;-76
2021/03/01 02:01:29;;;;;;;12.23;5.83;;;;;;;1.88;72.67;101346.82;126264;1096;104265;-77
2021/03/01 02:04:03;;;;;;;14.73;5.93;;;;;;;1.90;72.27;101353.02;126304;1096;104141;-77
2021/03/01 02:06:46;;;;;;;13.57;6.30;;;;;;;1.92;73.17;101352.38;126314;1099;104140;-77
2021/03/01 02:09:28;;;;;;;12.70;5.50;;;;;;;1.97;72.66;101355.36;126350;1096;104146;-77
2021/03/01 02:12:16;;;;;;;13.73;5.90;;;;;;;1.98;72.44;101352.91;126292;1096;104159;-77
2021/03/01 02:14:58;;;;;;;14.90;6.37;;;;;;;2.01;72.84;101354.85;126285;1096;104139;-77
2021/03/01 02:17:27;;;;;;;15.00;5.90;;;;;;;2.03;72.97;101350.70;126359;1096;104165;-77
2021/03/01 02:19:56;;;;;;;13.60;5.90;;;;;;;2.06;72.92;101360.41;126318;1096;104351;-77
2021/03/01 02:22:25;;;;;;;13.33;5.70;;;;;;;2.09;72.93;101352.91;126338;1096;104216;-76
2021/03/01 02:25:00;;;;;;;11.20;5.20;;;;;;;2.09;73.17;101360.67;126261;1098;104162;-77
2021/03/01 02:27:35;;;;;;;13.37;5.90;;;;;;;2.09;73.27;101368.44;126326;1095;104192;-77
2021/03/01 02:30:10;;;;;;;12.43;5.87;;;;;;;2.09;73.36;101366.74;126320;1096;104264;-77
2021/03/01 02:32:40;;;;;;;14.13;5.73;;;;;;;2.10;72.97;101362.46;126315;1096;104142;-77
2021/03/01 02:35:13;;;;;;;12.80;6.30;;;;;;;2.10;72.83;101362.46;126303;1096;104261;-77
2021/03/01 02:37:43;;;;;;;14.73;6.10;;;;;;;2.11;73.08;101365.17;126348;1096;104140;-77
2021/03/01 02:40:14;;;;;;;16.33;6.37;;;;;;;2.13;73.22;101365.30;126287;1096;104236;-77
2021/03/01 02:42:44;;;;;;;14.23;6.37;;;;;;;2.11;73.24;101360.00;126331;1096;104117;-77
2021/03/01 02:45:17;;;;;;;14.17;5.73;;;;;;;2.13;73.43;101362.72;126296;1096;104204;-78
2021/03/01 02:47:46;;;;;;;13.23;5.67;;;;;;;2.14;73.54;101369.72;126334;1096;104139;-77
2021/03/01 02:50:17;;;;;;;16.67;6.63;;;;;;;2.15;73.54;101368.91;126322;1096;104261;-76
2021/03/01 02:52:48;;;;;;;13.23;6.10;;;;;;;2.19;73.43;101370.09;126265;1095;104136;-77
2021/03/01 02:55:19;;;;;;;12.33;5.77;;;;;;;2.23;73.47;101370.48;126312;1096;104139;-77
2021/03/01 02:57:50;;;;;;;11.67;5.50;;;;;;;2.24;73.17;101381.73;126277;1096;104213;-78
2021/03/01 03:00:22;;;;;;;12.83;5.80;;;;;;;2.22;73.17;101375.53;126307;1096;104142;-78
2021/03/01 03:02:52;;;;;;;10.93;5.03;;;;;;;2.22;73.62;101375.53;126324;1096;104155;-77
2021/03/01 03:05:23;;;;;;;9.67;4.47;;;;;;;2.19;73.43;101373.58;126288;1096;104146;-77
2021/03/01 03:07:54;;;;;;;9.97;4.67;;;;;;;2.14;73.12;101378.38;126317;1096;104137;-77
2021/03/01 03:10:23;;;;;;;11.30;5.10;;;;;;;2.13;73.29;101379.14;126315;1096;104137;-77
2021/03/01 03:12:53;;;;;;;9.20;4.43;;;;;;;2.12;73.52;101381.61;126340;1096;104176;-78
2021/03/01 03:15:23;;;;;;;9.37;4.57;;;;;;;2.12;73.76;101381.61;126345;1096;104266;-77
2021/03/01 03:17:53;;;;;;;10.13;4.83;;;;;;;2.11;73.52;101385.00;126274;1096;104168;-78
2021/03/01 03:20:22;;;;;;;11.33;4.83;;;;;;;2.11;73.56;101390.17;126234;1096;104146;-77
2021/03/01 03:22:51;;;;;;;10.33;4.73;;;;;;;2.10;73.29;101386.69;126259;1096;104236;-77
2021/03/01 03:25:20;;;;;;;9.53;4.63;;;;;;;2.11;73.44;101387.58;126317;1096;104162;-78
2021/03/01 03:27:49;;;;;;;11.63;5.07;;;;;;;2.11;73.43;101392.77;126311;1095;104286;-77
2021/03/01 03:30:22;;;;;;;12.50;5.20;;;;;;;2.11;73.98;101396.25;126284;1096;104264;-77
2021/03/01 03:32:51;;;;;;;12.00;5.50;;;;;;;2.12;73.52;101400.66;126308;1096;104139;-78
2021/03/01 03:35:20;;;;;;;11.07;5.47;;;;;;;2.14;74.04;101398.20;126311;1095;104271;-77
2021/03/01 03:37:55;;;;;;;13.63;5.97;;;;;;;2.16;74.07;101400.12;126347;1096;104271;-77
2021/03/01 03:40:26;;;;;;;16.77;7.07;;;;;;;2.19;73.87;101401.17;126309;1096;104150;-77
2021/03/01 03:42:57;;;;;;;21.27;8.17;;;;;;;2.13;73.60;101402.45;126268;1096;104134;-77
2021/03/01 03:45:27;;;;;;;21.07;8.87;;;;;;;2.10;73.84;101409.06;126223;1096;104836;-78
2021/03/01 03:48:01;;;;;;;19.17;7.60;;;;;;;2.10;73.97;101414.24;126354;1096;104161;-77
2021/03/01 03:50:31;;;;;;;17.50;7.70;;;;;;;2.08;74.24;101411.52;126327;1096;104140;-77
2021/03/01 03:53:05;;;;;;;18.13;6.77;;;;;;;2.05;74.19;101413.85;126317;1096;104159;-78
2021/03/01 03:55:38;;;;;;;16.27;6.97;;;;;;;2.05;73.91;101416.44;126144;1096;104142;-77
2021/03/01 03:58:13;;;;;;;13.87;5.90;;;;;;;2.05;73.93;101415.55;126253;1096;104973;-77
2021/03/01 04:00:42;;;;;;;10.03;5.00;;;;;;;2.09;74.41;101415.94;126266;1096;104152;-78
2021/03/01 04:03:14;;;;;;;11.50;4.87;;;;;;;2.07;74.30;101417.50;126277;1096;104158;-77
2021/03/01 04:05:45;;;;;;;10.57;5.03;;;;;;;2.09;73.83;101417.63;126284;1098;104147;-77
2021/03/01 04:08:17;;;;;;;10.73;5.20;;;;;;;2.09;73.98;101421.11;126243;1099;104393;-77
2021/03/01 04:10:50;;;;;;;8.37;4.30;;;;;;;2.11;74.25;101426.42;126321;1096;104133;-79
2021/03/01 04:13:23;;;;;;;9.90;4.65;;;;;;;2.08;73.89;101426.16;126315;1096;104290;-78
2021/03/01 04:15:56;;;;;;;9.97;4.90;;;;;;;2.07;73.79;101425.27;126308;1096;104162;-78
2021/03/01 04:18:27;;;;;;;11.23;5.30;;;;;;;2.09;73.92;101425.40;126319;1096;104749;-77
2021/03/01 04:21:00;;;;;;;10.50;4.87;;;;;;;2.07;73.88;101424.34;126282;1096;104141;-77
2021/03/01 04:23:31;;;;;;;10.03;4.63;;;;;;;2.06;74.22;101432.91;126301;1095;104201;-77
2021/03/01 04:26:02;;;;;;;9.77;4.80;;;;;;;2.05;74.06;101431.98;126294;1096;104133;-77
2021/03/01 04:28:32;;;;;;;10.90;5.17;;;;;;;2.07;74.02;101445.05;126280;1098;104178;-77
2021/03/01 04:31:05;;;;;;;12.10;5.30;;;;;;;2.08;74.31;101442.59;126293;1096;104188;-78
2021/03/01 04:33:36;;;;;;;11.63;5.50;;;;;;;2.11;74.05;101452.31;126297;1096;104217;-77
2021/03/01 04:36:08;;;;;;;13.47;5.50;;;;;;;2.10;74.65;101451.42;126329;1096;104156;-78
2021/03/01 04:38:37;;;;;;;13.33;5.67;;;;;;;2.10;74.51;101458.27;126258;1096;104421;-78
2021/03/01 04:41:07;;;;;;;12.73;6.30;;;;;;;2.10;74.34;101459.19;126178;1096;104150;-78
2021/03/01 04:43:38;;;;;;;13.80;6.70;;;;;;;2.10;74.39;101461.78;126133;1096;104229;-78
2021/03/01 04:46:08;;;;;;;16.00;6.67;;;;;;;2.13;74.54;101466.28;126224;1096;104165;-77
2021/03/01 04:48:38;;;;;;;14.03;6.77;;;;;;;2.14;74.14;101469.01;126145;1096;104155;-77
2021/03/01 04:51:09;;;;;;;15.97;7.40;;;;;;;2.13;74.42;101471.47;126168;1096;104171;-78
2021/03/01 04:53:39;;;;;;;17.17;7.60;;;;;;;2.11;74.22;101479.10;126305;1096;104318;-77
2021/03/01 04:56:09;;;;;;;17.03;8.07;;;;;;;2.13;74.23;101484.41;126285;1098;104271;-78
2021/03/01 04:58:39;;;;;;;20.23;8.30;;;;;;;2.14;74.56;101487.13;126287;1096;101969;-77
2021/03/01 05:01:09;;;;;;;17.40;7.60;;;;;;;2.15;74.47;101488.03;126308;1096;104165;-77
2021/03/01 05:03:39;;;;;;;18.03;8.33;;;;;;;2.16;74.75;101498.52;126244;1096;104313;-77
2021/03/01 05:06:09;;;;;;;16.27;8.20;;;;;;;2.17;75.00;101494.27;126269;1096;104602;-77
2021/03/01 05:08:38;;;;;;;16.80;7.50;;;;;;;2.19;74.53;101499.58;126267;1096;104358;-78
2021/03/01 05:11:09;;;;;;;19.23;8.23;;;;;;;2.20;74.43;101506.55;126267;1096;104140;-77
2021/03/01 05:13:38;;;;;;;19.80;8.07;;;;;;;2.20;74.84;101510.07;126336;1096;104143;-77
2021/03/01 05:16:07;;;;;;;17.43;7.60;;;;;;;2.21;74.70;101511.86;126260;1096;104127;-77
2021/03/01 05:18:36;;;;;;;17.37;8.00;;;;;;;2.21;75.08;101517.04;126338;1096;104130;-78
2021/03/01 05:21:06;;;;;;;19.53;8.50;;;;;;;2.25;75.04;101510.46;126252;1096;104296;-79
2021/03/01 05:23:34;;;;;;;15.23;7.30;;;;;;;2.28;74.96;101516.80;126176;1096;104191;-78
2021/03/01 05:26:05;;;;;;;18.17;8.37;;;;;;;2.30;75.11;101520.41;126208;1095;104753;-78
2021/03/01 05:28:35;;;;;;;18.97;8.63;;;;;;;2.30;75.19;101523.00;126295;1096;104258;-78
2021/03/01 05:31:05;;;;;;;17.60;8.03;;;;;;;2.31;75.22;101521.34;126326;1096;104142;-77
2021/03/01 05:33:34;;;;;;;20.00;8.95;;;;;;;2.32;74.82;101528.31;126277;1096;104265;-78
2021/03/01 05:36:04;;;;;;;19.53;9.07;;;;;;;2.34;75.23;101529.38;126228;1096;104153;-76
2021/03/01 05:38:33;;;;;;;21.03;9.67;;;;;;;2.38;74.87;101534.02;126281;1096;104181;-77
2021/03/01 05:41:04;;;;;;;18.50;8.53;;;;;;;2.39;74.86;101538.44;125950;1096;104165;-77
2021/03/01 05:43:34;;;;;;;19.37;8.77;;;;;;;2.41;74.76;101536.88;125967;1096;104262;-77
2021/03/01 05:46:03;;;;;;;16.13;7.53;;;;;;;2.44;74.79;101542.31;125950;1096;104134;-77
2021/03/01 05:48:32;;;;;;;17.97;8.83;;;;;;;2.48;74.81;101544.40;125844;1096;104159;-77
2021/03/01 05:51:03;;;;;;;22.23;10.73;;;;;;;2.51;74.75;101543.77;126110;1096;104137;-77
2021/03/01 05:53:37;;;;;;;21.43;10.50;;;;;;;2.56;74.98;101552.82;126103;1096;104264;-77
2021/03/01 05:56:08;;;;;;;22.67;10.53;;;;;;;2.60;75.08;101552.31;126050;1096;105292;-78
2021/03/01 05:58:39;;;;;;;25.03;10.73;;;;;;;2.66;74.59;101551.91;126090;1096;104185;-78
2021/03/01 06:01:08;;;;;;;20.50;9.83;;;;;;;2.69;75.03;101554.75;126123;1097;104194;-77
2021/03/01 06:03:38;;;;;;;20.33;10.07;;;;;;;2.69;75.23;101563.42;126145;1096;104335;-77
2021/03/01 06:06:08;;;;;;;20.77;9.73;;;;;;;2.73;75.35;101566.28;126042;1096;104217;-78
2021/03/01 06:08:37;;;;;;;23.10;10.23;;;;;;;2.73;75.05;101577.57;125885;1096;104181;-78
2021/03/01 06:11:08;;;;;;;20.17;9.23;;;;;;;2.78;75.02;101573.67;126014;1096;104182;-77
2021/03/01 06:13:39;;;;;;;22.80;10.63;;;;;;;2.79;74.41;101567.72;126093;1096;104328;-78
2021/03/01 06:16:09;;;;;;;22.87;9.07;;;;;;;2.83;74.40;101585.33;126106;1096;104239;-77
2021/03/01 06:18:45;;;;;;;20.17;9.27;;;;;;;2.82;74.99;101580.94;126043;1096;104147;-78
2021/03/01 06:21:17;;;;;;;19.40;9.17;;;;;;;2.85;74.71;101590.64;125826;1099;104246;-79
2021/03/01 06:23:46;;;;;;;21.60;9.87;;;;;;;2.88;75.67;101591.83;125873;1096;104326;-78
2021/03/01 06:26:27;;;;;;;21.33;10.03;;;;;;;2.96;75.25;101581.17;125928;1096;104335;-77
2021/03/01 06:29:09;;;;;;;21.50;9.83;;;;;;;3.02;75.14;101592.05;125969;1096;104190;-78
2021/03/01 06:31:43;;;;;;;23.70;11.23;;;;;;;3.07;74.65;101595.96;125764;1099;104174;-77
2021/03/01 06:34:31;;;;;;;31.87;14.47;;;;;;;3.12;75.28;101602.42;125879;1096;104165;-77
2021/03/01 06:37:07;;;;;;;33.07;15.53;;;;;;;3.17;75.20;101603.70;125976;1099;104293;-77
2021/03/01 06:39:39;;;;;;;27.07;12.70;;;;;;;3.18;75.32;101602.94;125822;1096;104321;-77
2021/03/01 06:42:21;;;;;;;20.90;9.50;;;;;;;3.23;75.57;101608.51;125920;1097;104229;-79
2021/03/01 06:45:15;;;;;;;21.33;10.00;;;;;;;3.27;75.38;101605.36;125831;1096;104185;-77
2021/03/01 06:47:49;;;;;;;19.85;9.20;;;;;;;3.27;75.10;101617.44;125815;1096;104302;-77
2021/03/01 06:50:32;;;;;;;19.32;9.65;;;;;;;3.30;75.03;101620.28;125879;1099;104280;-80
2021/03/01 06:53:14;;;;;;;21.07;9.97;;;;;;;3.35;75.24;101617.31;125901;1097;104629;-78
2021/03/01 06:55:58;;;;;;;18.80;8.60;;;;;;;3.43;75.14;101628.31;125885;1099;104144;-78
2021/03/01 06:58:30;;;;;;;18.53;9.43;;;;;;;3.45;75.01;101624.15;125966;1096;104287;-77
2021/03/01 07:01:11;;;;;;;23.63;11.00;;;;;;;3.48;74.91;101637.37;126113;1096;104179;-81
2021/03/01 07:03:42;;;;;;;23.37;11.27;;;;;;;3.50;75.39;101642.69;126022;1096;104159;-79
2021/03/01 07:06:13;;;;;;;22.13;10.57;;;;;;;3.50;74.67;101646.19;125768;1099;104383;-80
2021/03/01 07:08:53;;;;;;;24.37;11.73;;;;;;;3.49;74.61;101651.25;125845;1096;104252;-79
2021/03/01 07:11:28;;;;;;;22.37;9.80;;;;;;;3.47;75.07;101653.72;125893;1096;104211;-80
2021/03/01 07:14:09;;;;;;;23.37;11.53;;;;;;;3.45;75.18;101650.09;126163;1096;104208;-78
2021/03/01 07:16:41;;;;;;;20.83;10.67;;;;;;;3.42;74.70;101642.06;125978;1095;104242;-80
2021/03/01 07:19:15;;;;;;;25.00;11.03;;;;;;;3.53;74.52;101661.11;125871;1096;104168;-77
2021/03/01 07:21:49;;;;;;;25.40;12.10;;;;;;;3.48;74.46;101665.92;125844;1096;104168;-77
2021/03/01 07:24:32;;;;;;;23.90;11.80;;;;;;;3.46;75.29;101659.71;125814;1096;104214;-79
2021/03/01 07:27:03;;;;;;;23.33;10.93;;;;;;;3.48;74.96;101668.52;126014;1095;104188;-77
2021/03/01 07:29:38;;;;;;;25.53;10.90;;;;;;;3.49;75.01;101661.63;125998;1095;104235;-80
2021/03/01 07:32:12;;;;;;;23.93;10.83;;;;;;;3.47;75.04;101671.88;125956;1096;104194;-77
2021/03/01 07:34:43;;;;;;;24.87;11.53;;;;;;;3.47;75.32;101674.48;126087;1095;104213;-79
2021/03/01 07:37:15;;;;;;;24.70;11.23;;;;;;;3.42;75.36;101676.69;125998;1096;104143;-82
2021/03/01 07:39:44;;;;;;;24.10;11.67;;;;;;;3.43;74.92;101680.22;125838;1099;104146;-78
2021/03/01 07:42:17;;;;;;;23.37;11.87;;;;;;;3.45;75.66;101672.56;125899;1096;104280;-82
2021/03/01 07:44:53;;;;;;;24.70;11.07;;;;;;;3.48;74.64;101697.06;125856;1099;104245;-79
2021/03/01 07:47:30;;;;;;;24.80;11.00;;;;;;;3.46;74.76;101684.73;126236;1096;104146;-81
2021/03/01 07:49:59;;;;;;;;;;;;;;;3.46;75.33;101700.30;126170;1097;104137;-82
2021/03/01 07:52:40;;;;;;;31.37;14.07;;;;;;;3.45;75.69;101683.84;125880;1096;104309;-82
2021/03/01 07:55:11;;;;;;;27.30;12.27;;;;;;;3.51;75.06;101692.13;125925;1096;104227;-82
2021/03/01 07:57:59;;;;;;;24.23;11.50;;;;;;;3.54;75.02;101694.98;125795;1096;104050;-80
2021/03/01 08:00:33;;;;;;;26.67;12.20;;;;;;;3.63;75.13;101691.32;125862;1099;104147;-80
2021/03/01 08:03:23;;;;;;;25.73;11.60;;;;;;;3.69;75.01;101700.52;125986;1096;104152;-81
2021/03/01 08:05:53;;;;;;;23.00;10.23;;;;;;;3.72;75.77;101699.87;125807;1099;104271;-78
2021/03/01 08:08:48;;;;;;;28.45;13.50;;;;;;;3.75;74.71;101705.31;125877;1096;104399;-80
2021/03/01 08:11:38;;;;;;;23.67;11.55;;;;;;;3.82;74.70;101702.45;125931;1096;104146;-80
2021/03/01 08:14:13;;;;;;;25.33;11.83;;;;;;;3.90;75.53;101718.66;126002;1099;104175;-80
2021/03/01 08:17:02;;;;;;;29.67;13.50;;;;;;;3.91;75.32;101716.19;126148;1099;104262;-80
2021/03/01 08:19:42;;;;;;;25.67;12.33;;;;;;;3.98;74.62;101719.30;125935;1099;104140;-80
2021/03/01 08:22:11;;;;;;;27.50;13.00;;;;;;;4.00;75.47;101713.42;125938;1096;104178;-79
2021/03/01 08:24:53;;;;;;;26.77;12.40;;;;;;;4.09;75.18;101723.66;125804;1096;104286;-80
2021/03/01 08:27:40;;;;;;;27.97;12.53;;;;;;;4.19;75.33;101731.43;125993;1096;104285;-80
2021/03/01 08:30:33;;;;;;;22.77;11.10;;;;;;;4.24;75.14;101731.77;125952;1096;104271;-83
2021/03/01 08:33:26;;;;;;;28.90;12.43;;;;;;;4.21;75.09;101740.25;125958;1096;104213;-81
2021/03/01 08:36:22;;;;;;;27.90;12.43;;;;;;;4.16;75.29;101746.77;126042;1096;104137;-82
2021/03/01 08:38:57;;;;;;;27.23;11.80;;;;;;;4.08;75.12;101740.95;126007;1097;104319;-80
2021/03/01 08:41:42;;;;;;;25.77;9.97;;;;;;;4.08;74.61;101750.41;126170;1096;104134;-79
2021/03/01 08:44:24;;;;;;;23.57;10.53;;;;;;;4.03;74.55;101756.93;126033;1098;104168;-79
2021/03/01 08:47:03;;;;;;;23.57;11.37;;;;;;;3.99;74.55;101754.84;126050;1096;102251;-81
2021/03/01 08:49:33;;;;;;;23.53;11.63;;;;;;;3.94;75.02;101762.26;126144;1099;104137;-80
2021/03/01 08:52:05;;;;;;;22.37;10.30;;;;;;;3.91;75.25;101762.94;126030;1099;104333;-81
2021/03/01 08:54:36;;;;;;;22.73;10.37;;;;;;;3.93;75.30;101778.65;126181;1096;104147;-81
2021/03/01 08:57:08;;;;;;;20.47;9.13;;;;;;;3.94;75.13;101781.38;125989;1099;104217;-78
2021/03/01 08:59:39;;;;;;;21.57;10.30;;;;;;;3.93;74.86;101766.56;126027;1099;102891;-82
2021/03/01 09:02:09;;;;;;;20.60;9.00;;;;;;;3.96;75.09;101787.59;126203;1096;104146;-80
2021/03/01 09:04:38;;;;;;;22.73;9.80;;;;;;;3.94;75.34;101789.16;126089;1099;104267;-82
2021/03/01 09:07:09;;;;;;;19.97;9.17;;;;;;;3.95;75.08;101777.97;126026;1096;104631;-82
2021/03/01 09:09:55;;;;;;;20.40;9.50;;;;;;;3.98;75.33;101769.53;125950;1096;104274;-81
2021/03/01 09:12:28;;;;;;;21.05;9.45;;;;;;;4.04;75.26;101782.13;125948;1099;104210;-81
2021/03/01 09:15:00;;;;;;;21.43;9.43;;;;;;;4.08;75.13;101789.37;125863;1097;104146;-80
2021/03/01 09:17:30;;;;;;;26.57;10.33;;;;;;;4.11;75.41;101790.55;125950;1096;104144;-83
2021/03/01 09:19:59;;;;;;;22.97;10.77;;;;;;;4.14;74.66;101810.66;125998;1096;104169;-82
2021/03/01 09:22:45;;;;;;;28.20;12.63;;;;;;;4.11;74.80;101815.61;125828;1099;104194;-79
2021/03/01 09:25:31;;;;;;;22.40;10.63;;;;;;;4.11;74.75;101813.01;126037;1098;104124;-81
2021/03/01 09:28:03;;;;;;;21.40;9.60;;;;;;;4.10;75.51;101827.70;125927;1099;104143;-81
2021/03/01 09:30:33;;;;;;;19.53;9.13;;;;;;;4.10;74.99;101819.01;125975;1099;104233;-81
2021/03/01 09:33:06;;;;;;;21.10;9.73;;;;;;;4.11;75.25;101828.59;125802;1095;104198;-79
2021/03/01 09:35:37;;;;;;;20.50;9.53;;;;;;;4.12;75.31;101827.83;125857;1096;104149;-79
2021/03/01 09:38:09;;;;;;;22.90;10.87;;;;;;;4.11;74.97;101829.52;126013;1096;104152;-79
2021/03/01 09:40:39;;;;;;;19.60;9.60;;;;;;;4.09;75.67;101833.66;125881;1096;104143;-79
2021/03/01 09:43:23;;;;;;;20.73;10.03;;;;;;;4.10;74.99;101834.59;125929;1096;104194;-81
2021/03/01 09:46:05;;;;;;;20.20;8.83;;;;;;;4.08;75.07;101837.06;126003;1097;104149;-81
2021/03/01 09:48:49;;;;;;;22.93;10.67;;;;;;;4.09;74.83;101831.06;126086;1099;104153;-81
2021/03/01 09:51:20;;;;;;;23.55;11.05;;;;;;;4.11;74.47;101838.98;126084;1096;104169;-80
2021/03/01 09:53:51;;;;;;;21.37;10.13;;;;;;;4.12;74.91;101846.91;125931;1096;104136;-83
2021/03/01 09:56:21;;;;;;;23.13;11.60;;;;;;;4.16;75.27;101839.37;125915;1096;104264;-82
2021/03/01 09:58:51;;;;;;;22.27;10.20;;;;;;;4.20;75.41;101851.84;126011;1099;104239;-82
2021/03/01 10:01:27;;;;;;;25.47;10.73;;;;;;;4.20;75.12;101846.65;125880;1096;104163;-81
2021/03/01 10:03:57;;;;;;;20.90;9.13;;;;;;;4.19;75.21;101850.02;126066;1096;104144;-83
2021/03/01 10:06:34;;;;;;;21.27;9.70;;;;;;;4.18;75.50;101838.73;125956;1096;104293;-83
2021/03/01 10:09:06;;;;;;;21.27;10.50;;;;;;;4.17;75.20;101849.89;125873;1096;104601;-83
2021/03/01 10:11:38;;;;;;;21.90;10.03;;;;;;;4.19;75.14;101861.34;126010;1096;104166;-84
2021/03/01 10:14:13;;;;;;;23.10;10.32;;;;;;;4.19;74.61;101856.14;126108;1096;104195;-81
2021/03/01 10:16:45;;;;;;;23.90;9.70;;;;;;;4.21;75.20;101853.67;125945;1096;104163;-82
2021/03/01 10:19:17;;;;;;;20.90;8.70;;;;;;;4.28;74.69;101853.38;126036;1096;104216;-80
2021/03/01 10:21:47;;;;;;;21.03;8.53;;;;;;;4.27;74.90;101869.73;125848;1099;104210;-83
2021/03/01 10:24:20;;;;;;;20.83;9.27;;;;;;;4.25;75.14;101866.11;125852;1096;104198;-83
2021/03/01 10:26:57;;;;;;;20.80;9.20;;;;;;;4.26;75.11;101865.34;125939;1096;104172;-83
2021/03/01 10:29:37;;;;;;;19.77;8.80;;;;;;;4.27;75.16;101870.67;126124;1096;101768;-85
2021/03/01 10:32:19;;;;;;;19.93;8.70;;;;;;;4.30;75.09;101867.39;126009;1096;104153;-81
2021/03/01 10:34:51;;;;;;;18.10;7.13;;;;;;;4.34;74.86;101868.58;125925;1096;104166;-83
2021/03/01 10:37:25;;;;;;;19.90;8.40;;;;;;;4.35;74.62;101872.97;125934;1096;104161;-80
2021/03/01 10:39:55;;;;;;;20.50;9.23;;;;;;;4.32;74.98;101874.55;125985;1096;104191;-81
2021/03/01 10:42:40;;;;;;;18.20;8.73;;;;;;;4.28;74.40;101872.47;125979;1099;104798;-81
2021/03/01 10:45:11;;;;;;;17.43;8.40;;;;;;;4.26;74.36;101878.34;126076;1096;104446;-81
2021/03/01 10:47:43;;;;;;;17.80;7.57;;;;;;;4.24;75.05;101874.67;125945;1098;104284;-81
2021/03/01 10:50:24;;;;;;;18.07;8.33;;;;;;;4.23;74.80;101878.98;126030;1096;104197;-81
2021/03/01 10:52:55;;;;;;;20.03;9.33;;;;;;;4.21;74.31;101885.75;125965;1096;104192;-82
2021/03/01 10:55:31;;;;;;;19.57;9.57;;;;;;;4.20;74.71;101880.42;125927;1099;104192;-83
2021/03/01 10:58:04;;;;;;;21.57;9.73;;;;;;;4.17;74.72;101883.66;126184;1096;104163;-82
2021/03/01 11:00:39;;;;;;;21.73;9.43;;;;;;;4.16;75.11;101880.94;125844;1099;104428;-82
2021/03/01 11:03:17;;;;;;;21.10;8.80;;;;;;;4.14;74.78;101880.80;125751;1096;104162;-79
2021/03/01 11:05:47;;;;;;;18.93;8.77;;;;;;;4.14;75.29;101886.00;125649;1099;104360;-80
2021/03/01 11:08:16;;;;;;;21.33;9.17;;;;;;;4.14;74.51;101888.60;125675;1096;104160;-79
2021/03/01 11:10:51;;;;;;;22.00;9.63;;;;;;;4.14;74.42;101889.53;125660;1096;104619;-80
2021/03/01 11:13:23;;;;;;;21.93;9.27;;;;;;;4.17;75.18;101888.86;125633;1099;104411;-82
2021/03/01 11:15:52;;;;;;;21.53;9.83;;;;;;;4.15;74.94;101898.23;125645;1099;103781;-82
2021/03/01 11:18:22;;;;;;;21.13;9.80;;;;;;;4.16;74.85;101891.33;125711;1096;104162;-81
2021/03/01 11:20:51;;;;;;;25.00;10.97;;;;;;;4.16;74.65;101896.52;125678;1099;104274;-80
2021/03/01 11:23:21;;;;;;;21.67;9.50;;;;;;;4.12;74.16;101901.46;125582;1099;104153;-81
2021/03/01 11:25:56;;;;;;;22.83;9.83;;;;;;;4.06;74.33;101895.75;125743;1096;104194;-81
2021/03/01 11:28:27;;;;;;;21.93;9.83;;;;;;;4.03;74.86;101899.79;126096;1096;104250;-81
2021/03/01 11:30:59;;;;;;;20.53;9.77;;;;;;;4.01;75.12;101911.75;126002;1099;104210;-80
2021/03/01 11:33:29;;;;;;;20.57;9.90;;;;;;;4.01;74.89;101915.24;125820;1099;104178;-80